Time;durP1;ratioP1;P1;durP2;ratioP2;P2;SDS_P1;SDS_P2;PMS_P1;PMS_P2;Temp;Humidity;BMP_temperature;BMP_pressure;BME280_temperature;BME280_humidity;BME280_pressure;Samples;Min_cycle;Max_cycle;Signal;HPM_P1;HPM_P2
2023/06/02 00:00:39;;;;;;;13.73;5.20;;;;;;;41.33;36.97;101080.53;5035280;28;20431;-92
2023/06/02 00:03:10;;;;;;;16.93;5.80;;;;;;;41.42;36.78;101083.22;5052347;28;20417;-93
2023/06/02 00:05:39;;;;;;;15.40;6.97;;;;;;;41.42;36.72;101076.97;5050510;28;20425;-91
2023/06/02 00:08:09;;;;;;;16.30;6.23;;;;;;;41.32;36.97;101069.94;5069773;28;20512;-92
2023/06/02 00:10:38;;;;;;;15.37;6.33;;;;;;;41.39;37.19;101066.75;5056192;28;20458;-92
2023/06/02 00:13:07;;;;;;;20.10;7.47;;;;;;;41.32;36.82;101073.50;5053900;28;20432;-93
2023/06/02 00:15:41;;;;;;;13.43;5.77;;;;;;;41.36;37.11;101067.41;5049262;28;20530;-92
2023/06/02 00:18:15;;;;;;;16.63;6.40;;;;;;;41.33;36.89;101066.94;5041602;28;20427;-92
2023/06/02 00:21:08;;;;;;;15.67;6.77;;;;;;;41.38;36.98;101065.97;5054336;28;20584;-92
2023/06/02 00:23:39;;;;;;;14.30;5.10;;;;;;;41.49;36.81;101066.38;5050151;28;20467;-92
2023/06/02 00:26:06;;;;;;;22.53;8.30;;;;;;;41.42;37.23;101061.44;5023391;28;20608;-93
2023/06/02 00:28:43;;;;;;;13.60;7.80;;;;;;;41.39;37.24;101064.03;5074869;28;20417;-92
2023/06/02 00:31:09;;;;;;;15.70;8.13;;;;;;;41.43;37.39;101056.78;5048272;28;20520;-91
2023/06/02 00:33:35;;;;;;;17.30;7.73;;;;;;;41.23;37.61;101047.38;5056803;28;20882;-91
2023/06/02 00:36:01;;;;;;;19.53;9.30;;;;;;;41.22;37.87;101048.50;5056709;28;20471;-92
2023/06/02 00:38:48;;;;;;;13.73;7.77;;;;;;;41.16;37.69;101050.59;5056225;28;20445;-94
2023/06/02 00:41:30;;;;;;;20.00;9.27;;;;;;;41.25;37.85;101050.56;5049269;28;20414;-95
2023/06/02 00:43:59;;;;;;;16.97;9.90;;;;;;;41.11;38.10;101048.06;5069923;28;20445;-94
2023/06/02 00:46:29;;;;;;;19.47;10.80;;;;;;;41.17;38.13;101044.03;5074881;28;20428;-94
2023/06/02 00:49:07;;;;;;;21.37;9.83;;;;;;;41.13;37.94;101043.09;5073116;28;20432;-89
2023/06/02 00:51:35;;;;;;;17.80;8.67;;;;;;;41.18;37.86;101045.63;5057112;28;20430;-85
2023/06/02 00:54:05;;;;;;;15.90;8.03;;;;;;;41.06;38.01;101042.78;5040615;28;20422;-84
2023/06/02 00:56:33;;;;;;;15.47;9.27;;;;;;;41.08;38.20;101037.84;5069577;28;20453;-86
2023/06/02 00:59:00;;;;;;;16.37;10.27;;;;;;;41.08;37.85;101026.94;5041358;28;20436;-88
2023/06/02 01:01:32;;;;;;;13.40;8.03;;;;;;;41.02;37.92;101020.09;5073958;28;20479;-90
2023/06/02 01:04:05;;;;;;;17.03;10.10;;;;;;;41.02;38.05;101009.19;5071125;28;20450;-90
2023/06/02 01:06:44;;;;;;;20.00;8.20;;;;;;;41.02;38.34;101017.38;5028050;28;20430;-90
2023/06/02 01:09:13;;;;;;;18.83;7.80;;;;;;;40.95;37.87;101017.84;5057393;28;20439;-90
2023/06/02 01:11:42;;;;;;;14.73;6.77;;;;;;;40.87;38.26;101012.38;5036719;28;21390;-90
2023/06/02 01:14:19;;;;;;;13.17;6.97;;;;;;;40.89;38.24;101002.81;5072965;28;20425;-90
2023/06/02 01:17:09;;;;;;;12.33;6.83;;;;;;;40.89;37.99;100999.28;5055002;28;20491;-89
2023/06/02 01:19:43;;;;;;;15.77;8.80;;;;;;;40.80;38.27;101002.00;5069957;28;20928;-90
2023/06/02 01:22:34;;;;;;;13.37;7.57;;;;;;;40.85;38.39;100998.31;5074523;28;20440;-91
2023/06/02 01:25:07;;;;;;;11.00;5.70;;;;;;;40.75;38.18;100983.94;5056840;28;20516;-90
2023/06/02 01:27:37;;;;;;;15.63;7.60;;;;;;;40.72;38.19;100978.34;5057931;28;20927;-89
2023/06/02 01:30:10;;;;;;;8.40;4.70;;;;;;;40.79;37.94;100970.50;5072851;28;20449;-89
2023/06/02 01:33:20;;;;;;;10.97;5.07;;;;;;;40.69;38.43;100968.91;5060703;28;20525;-88
2023/06/02 01:35:54;;;;;;;11.63;4.70;;;;;;;40.53;38.39;100959.66;5056092;28;20429;-89
2023/06/02 01:38:23;;;;;;;14.90;4.80;;;;;;;40.62;38.68;100957.72;5056265;28;20421;-89
2023/06/02 01:40:58;;;;;;;12.63;6.20;;;;;;;40.66;38.11;100941.56;5074130;28;20444;-89
2023/06/02 01:43:26;;;;;;;12.67;6.20;;;;;;;40.66;38.45;100931.50;5029841;28;20523;-90
2023/06/02 01:46:00;;;;;;;13.20;6.37;;;;;;;40.43;38.20;100927.34;5071878;28;20453;-90
2023/06/02 01:48:32;;;;;;;13.00;8.40;;;;;;;40.49;38.92;100929.59;5070480;28;20432;-89
2023/06/02 01:51:02;;;;;;;15.50;6.03;;;;;;;40.40;38.62;100928.00;5050189;28;20922;-89
2023/06/02 01:53:35;;;;;;;15.77;4.90;;;;;;;40.45;38.39;100930.53;5053953;28;20796;-89
2023/06/02 01:56:01;;;;;;;10.50;5.80;;;;;;;40.47;38.65;100928.28;5044975;28;20430;-89
2023/06/02 01:58:28;;;;;;;11.87;5.33;;;;;;;40.43;38.98;100930.84;5073636;28;20952;-88
2023/06/02 02:00:57;;;;;;;15.10;5.57;;;;;;;40.42;38.73;100923.03;5073568;28;21269;-89
2023/06/02 02:03:23;;;;;;;12.67;6.50;;;;;;;40.49;38.71;100916.00;5055494;28;20432;-89
2023/06/02 02:05:49;;;;;;;14.90;5.87;;;;;;;40.54;38.43;100929.44;5055468;28;20513;-87
2023/06/02 02:08:16;;;;;;;13.60;5.27;;;;;;;40.44;38.27;100927.00;5072983;28;20500;-89
2023/06/02 02:10:42;;;;;;;13.53;6.10;;;;;;;40.31;38.52;100925.25;5055745;28;20983;-88
2023/06/02 02:13:07;;;;;;;13.97;6.50;;;;;;;40.35;38.41;100937.09;5054722;28;20456;-89
2023/06/02 02:15:34;;;;;;;17.20;7.30;;;;;;;40.32;38.55;100926.84;5055444;28;20849;-88
2023/06/02 02:18:00;;;;;;;12.10;5.90;;;;;;;40.40;38.84;100928.00;5054981;28;20203;-88
2023/06/02 02:20:26;;;;;;;18.30;5.80;;;;;;;40.27;39.02;100914.25;5045515;28;20415;-88
2023/06/02 02:22:52;;;;;;;12.37;5.57;;;;;;;40.18;38.92;100908.00;5049629;28;20194;-84
2023/06/02 02:25:18;;;;;;;11.97;5.63;;;;;;;40.16;38.81;100909.47;5046229;28;20498;-83
2023/06/02 02:27:44;;;;;;;11.47;6.10;;;;;;;40.23;38.81;100910.56;5050213;28;20505;-84
2023/06/02 02:30:11;;;;;;;17.20;6.57;;;;;;;40.22;38.80;100905.47;5072789;28;20471;-84
2023/06/02 02:32:40;;;;;;;15.83;5.50;;;;;;;40.32;38.86;100907.03;5054487;28;20801;-84
2023/06/02 02:35:06;;;;;;;13.67;5.20;;;;;;;40.20;38.81;100911.19;5072822;28;20414;-84
2023/06/02 02:37:32;;;;;;;12.23;4.77;;;;;;;40.32;38.66;100918.72;5066989;28;20422;-84
2023/06/02 02:39:59;;;;;;;14.30;5.10;;;;;;;40.16;39.08;100936.63;5054833;28;20430;-84
2023/06/02 02:42:25;;;;;;;10.20;6.37;;;;;;;40.20;38.98;100934.84;5054329;28;21770;-84
2023/06/02 02:44:50;;;;;;;14.87;5.43;;;;;;;40.34;38.69;100942.88;5054782;28;20414;-84
2023/06/02 02:47:16;;;;;;;17.63;7.03;;;;;;;40.44;38.33;100943.31;5054743;28;20191;-84
2023/06/02 02:49:42;;;;;;;11.17;6.70;;;;;;;40.40;38.17;100941.59;5054498;28;20752;-84
2023/06/02 02:52:08;;;;;;;12.50;7.73;;;;;;;40.30;38.46;100929.09;5054380;28;20183;-84
2023/06/02 02:54:34;;;;;;;11.87;6.73;;;;;;;40.17;38.78;100928.16;5054393;28;20565;-84
2023/06/02 02:57:00;;;;;;;12.00;6.97;;;;;;;40.21;38.68;100912.81;5054633;28;20183;-84
2023/06/02 02:59:27;;;;;;;14.13;6.60;;;;;;;40.22;38.48;100921.78;5054443;28;20301;-85
2023/06/02 03:01:53;;;;;;;12.70;6.93;;;;;;;40.36;38.17;100946.06;5070247;28;20428;-84
2023/06/02 03:04:21;;;;;;;17.67;7.77;;;;;;;40.35;38.52;100955.34;5052618;28;20468;-83
2023/06/02 03:06:49;;;;;;;14.30;5.77;;;;;;;40.29;38.37;100949.25;5050241;28;20429;-83
2023/06/02 03:09:16;;;;;;;15.97;7.30;;;;;;;40.33;37.80;100933.09;5054284;28;20437;-84
2023/06/02 03:11:44;;;;;;;11.57;6.47;;;;;;;40.18;38.59;100920.81;5053974;28;20535;-84
2023/06/02 03:14:10;;;;;;;20.83;6.67;;;;;;;40.17;38.97;100914.56;5054112;28;20428;-84
2023/06/02 03:16:40;;;;;;;9.90;6.73;;;;;;;40.18;38.59;100916.16;5054034;28;20418;-84
2023/06/02 03:19:07;;;;;;;15.93;8.80;;;;;;;40.24;38.32;100908.66;5053977;28;20486;-84
2023/06/02 03:21:41;;;;;;;11.93;6.10;;;;;;;40.27;38.53;100918.91;5035941;28;20467;-84
2023/06/02 03:24:18;;;;;;;13.40;6.70;;;;;;;40.16;38.35;100923.84;5022340;28;20463;-85
2023/06/02 03:26:45;;;;;;;13.17;5.80;;;;;;;40.13;38.85;100926.41;5019552;28;20535;-84
2023/06/02 03:29:12;;;;;;;14.60;5.57;;;;;;;40.20;38.68;100930.22;5017449;28;20495;-84
2023/06/02 03:31:40;;;;;;;11.03;6.10;;;;;;;40.28;38.48;100948.47;5022167;28;20419;-84
2023/06/02 03:34:06;;;;;;;17.67;6.60;;;;;;;40.28;38.48;100950.38;5017625;28;20474;-83
2023/06/02 03:36:35;;;;;;;10.53;6.17;;;;;;;40.33;38.00;100946.69;5021287;28;20427;-83
2023/06/02 03:39:05;;;;;;;11.17;5.60;;;;;;;40.29;38.36;100954.69;5017662;28;20476;-84
2023/06/02 03:41:32;;;;;;;12.03;6.13;;;;;;;40.35;38.53;100953.41;5017398;28;20888;-84
2023/06/02 03:43:58;;;;;;;16.93;7.47;;;;;;;40.40;38.00;100933.44;5017099;28;20449;-84
2023/06/02 03:46:24;;;;;;;12.63;7.27;;;;;;;40.23;38.25;100935.03;5016263;28;20416;-84
2023/06/02 03:48:49;;;;;;;11.10;6.60;;;;;;;40.31;38.71;100921.75;5016357;28;20448;-84
2023/06/02 03:51:15;;;;;;;12.20;7.13;;;;;;;40.14;38.84;100917.91;5015130;28;20518;-84
2023/06/02 03:53:41;;;;;;;12.37;6.37;;;;;;;40.23;38.68;100918.72;5017609;28;20188;-83
2023/06/02 03:56:07;;;;;;;12.40;6.37;;;;;;;40.14;38.61;100928.00;5013994;28;20427;-84
2023/06/02 03:58:33;;;;;;;13.47;7.90;;;;;;;40.23;38.44;100936.94;5023606;28;20961;-84
2023/06/02 04:00:59;;;;;;;15.07;6.47;;;;;;;40.31;38.61;100968.75;5013104;28;20190;-84
2023/06/02 04:03:25;;;;;;;28.40;10.60;;;;;;;40.28;38.26;100970.22;5015229;28;20424;-82
2023/06/02 04:05:51;;;;;;;18.80;6.83;;;;;;;40.06;38.04;100943.19;5019431;28;20424;-84
2023/06/02 04:08:17;;;;;;;14.53;5.63;;;;;;;40.13;37.62;100924.47;5030216;28;20690;-84
2023/06/02 04:10:46;;;;;;;18.03;6.30;;;;;;;40.04;38.35;100907.38;5030796;28;20287;-90
2023/06/02 04:13:12;;;;;;;19.53;7.87;;;;;;;39.90;38.40;100910.25;5030807;28;20229;-87
2023/06/02 04:15:38;;;;;;;19.27;7.03;;;;;;;39.84;38.73;100943.28;5033635;28;20426;-87
2023/06/02 04:18:04;;;;;;;20.40;9.40;;;;;;;40.02;38.79;100967.47;5033317;28;20423;-83
2023/06/02 04:20:31;;;;;;;22.63;7.97;;;;;;;40.06;39.02;100967.63;5036737;28;20538;-88
2023/06/02 04:22:59;;;;;;;28.83;10.57;;;;;;;40.12;38.71;100960.91;5073300;28;20990;-89
2023/06/02 04:25:31;;;;;;;24.00;7.27;;;;;;;39.95;38.35;100939.94;5055184;28;20421;-89
2023/06/02 04:27:59;;;;;;;24.03;7.30;;;;;;;39.86;39.06;100927.47;5051834;28;20433;-89
2023/06/02 04:30:26;;;;;;;25.00;8.03;;;;;;;39.86;39.10;100933.72;5046321;28;21069;-89
2023/06/02 04:32:52;;;;;;;18.60;6.77;;;;;;;39.87;38.59;100926.34;5052865;28;20483;-88
2023/06/02 04:35:19;;;;;;;19.20;6.63;;;;;;;39.65;38.72;100919.94;5053685;28;20504;-87
2023/06/02 04:37:46;;;;;;;20.23;8.47;;;;;;;39.56;39.26;100934.59;5051967;28;20413;-82
2023/06/02 04:40:13;;;;;;;15.80;8.07;;;;;;;39.47;39.35;100950.81;5070751;28;20425;-86
2023/06/02 04:42:40;;;;;;;19.30;9.47;;;;;;;39.55;39.70;100971.00;5045618;28;20432;-91
2023/06/02 04:45:11;;;;;;;19.00;6.53;;;;;;;39.68;39.02;100983.69;5051872;28;20516;-88
2023/06/02 04:47:37;;;;;;;15.00;6.43;;;;;;;39.70;38.61;100981.44;5052275;28;20425;-86
2023/06/02 04:50:03;;;;;;;19.17;6.20;;;;;;;39.75;37.97;100978.56;5053270;28;20464;-83
2023/06/02 04:52:30;;;;;;;17.63;5.37;;;;;;;39.75;38.14;100979.38;5055963;28;20505;-84
2023/06/02 04:54:56;;;;;;;10.73;5.50;;;;;;;39.83;38.08;100977.00;5048053;28;20864;-86
2023/06/02 04:57:22;;;;;;;15.90;5.50;;;;;;;39.91;38.33;100993.31;5050724;28;20479;-84
2023/06/02 04:59:48;;;;;;;17.80;5.20;;;;;;;39.96;38.15;100995.06;5046787;28;20196;-88
2023/06/02 05:02:13;;;;;;;16.60;7.50;;;;;;;40.01;38.92;100998.44;5050848;28;20425;-84
2023/06/02 05:04:39;;;;;;;22.30;6.43;;;;;;;40.07;38.04;100995.59;5063948;28;20191;-87
2023/06/02 05:07:06;;;;;;;16.23;6.80;;;;;;;40.03;38.35;100993.50;5067963;28;20187;-85
2023/06/02 05:09:32;;;;;;;20.90;6.27;;;;;;;40.08;38.23;100997.19;5056189;28;20211;-83
2023/06/02 05:11:59;;;;;;;15.70;5.97;;;;;;;40.13;38.42;100995.13;5055567;28;20509;-84
2023/06/02 05:14:25;;;;;;;18.73;5.53;;;;;;;40.20;37.89;100984.56;5055986;28;20429;-84
2023/06/02 05:16:51;;;;;;;20.20;7.77;;;;;;;40.20;38.14;100973.69;5052497;28;20453;-84
2023/06/02 05:19:17;;;;;;;15.87;6.73;;;;;;;40.23;38.33;100966.84;5072903;28;20422;-84
2023/06/02 05:21:42;;;;;;;20.23;7.80;;;;;;;40.24;38.38;100971.94;5039147;28;20468;-84
2023/06/02 05:24:08;;;;;;;19.50;8.07;;;;;;;40.22;38.54;100976.13;5030181;28;20185;-84
2023/06/02 05:26:34;;;;;;;15.20;7.10;;;;;;;40.15;38.54;100957.59;5028620;28;20263;-84
2023/06/02 05:29:00;;;;;;;28.60;7.20;;;;;;;40.19;38.46;100955.81;5029272;28;20185;-84
2023/06/02 05:31:26;;;;;;;14.53;5.83;;;;;;;40.14;37.99;100961.38;5028958;28;20534;-86
2023/06/02 05:33:52;;;;;;;24.50;7.10;;;;;;;40.13;38.43;100975.31;5028141;28;20536;-87
2023/06/02 05:36:18;;;;;;;15.40;6.10;;;;;;;40.18;38.60;100981.38;5028951;28;20866;-84
2023/06/02 05:38:44;;;;;;;22.80;7.00;;;;;;;40.17;38.60;100996.09;5026776;28;20999;-84
2023/06/02 05:41:11;;;;;;;21.13;6.70;;;;;;;40.19;38.14;101001.19;5027970;28;20553;-84
2023/06/02 05:43:37;;;;;;;21.33;7.10;;;;;;;40.17;38.23;101001.53;5025457;28;20412;-84
2023/06/02 05:46:03;;;;;;;21.10;8.40;;;;;;;40.21;37.96;100993.56;5028286;28;20458;-84
2023/06/02 05:48:29;;;;;;;20.47;6.20;;;;;;;40.21;38.13;100986.19;5024509;28;20448;-84
2023/06/02 05:50:55;;;;;;;16.10;6.70;;;;;;;40.22;38.07;100982.34;5026639;28;20471;-84
2023/06/02 05:53:21;;;;;;;20.90;8.60;;;;;;;40.22;37.87;100987.00;5017937;28;20429;-85
2023/06/02 05:55:46;;;;;;;24.27;7.87;;;;;;;40.23;37.89;100986.66;5030810;28;20454;-86
2023/06/02 05:58:12;;;;;;;21.00;9.57;;;;;;;40.24;37.93;100999.13;5032195;28;20188;-88
2023/06/02 06:00:38;;;;;;;15.57;7.13;;;;;;;40.26;37.98;100991.44;5027664;28;20586;-88
2023/06/02 06:03:04;;;;;;;16.13;6.50;;;;;;;40.28;37.68;101002.81;5032089;28;20416;-84
2023/06/02 06:05:30;;;;;;;18.10;8.00;;;;;;;40.28;38.23;101008.25;5020277;28;20440;-87
2023/06/02 06:07:57;;;;;;;20.53;7.00;;;;;;;40.28;38.53;101016.41;5020131;28;21076;-82
2023/06/02 06:10:23;;;;;;;13.53;6.70;;;;;;;40.35;38.75;101026.00;5031204;28;20531;-82
2023/06/02 06:12:49;;;;;;;10.47;5.40;;;;;;;40.24;39.01;101023.59;5022230;28;20923;-86
2023/06/02 06:15:15;;;;;;;16.57;5.83;;;;;;;40.33;38.43;101017.34;5025220;28;20428;-86
2023/06/02 06:17:51;;;;;;;10.10;4.90;;;;;;;40.34;38.66;101010.81;5033166;28;20415;-84
2023/06/02 06:20:18;;;;;;;11.80;4.43;;;;;;;40.40;38.77;101004.09;5031728;28;20434;-84
2023/06/02 06:22:44;;;;;;;17.13;5.83;;;;;;;40.41;39.08;100995.63;5031534;28;20443;-84
2023/06/02 06:25:10;;;;;;;13.30;6.00;;;;;;;40.45;39.07;101001.19;5030767;28;20423;-83
2023/06/02 06:27:37;;;;;;;18.17;6.70;;;;;;;40.47;39.01;101004.41;5031885;28;20431;-85
2023/06/02 06:30:04;;;;;;;17.40;7.23;;;;;;;40.52;39.15;101024.13;5027801;28;20455;-79
2023/06/02 06:32:31;;;;;;;15.70;5.83;;;;;;;40.54;38.89;101016.44;5026972;28;20510;-86
2023/06/02 06:34:57;;;;;;;13.50;7.03;;;;;;;40.54;38.54;101012.91;5022207;28;20427;-83
2023/06/02 06:37:23;;;;;;;23.60;9.27;;;;;;;40.58;38.56;101010.34;5030620;28;20423;-84
2023/06/02 06:39:49;;;;;;;19.83;10.30;;;;;;;40.58;38.62;101019.31;5032872;28;20415;-84
2023/06/02 06:42:15;;;;;;;19.13;10.33;;;;;;;40.66;38.62;101026.66;5030914;28;20430;-84
2023/06/02 06:44:40;;;;;;;17.83;10.43;;;;;;;40.69;38.49;101038.81;5047843;28;20184;-83
2023/06/02 06:47:06;;;;;;;30.07;10.67;;;;;;;40.70;38.54;101049.38;5039259;28;20443;-84
2023/06/02 06:49:32;;;;;;;22.80;10.00;;;;;;;40.75;38.54;101053.84;5035353;28;20269;-84
2023/06/02 06:51:58;;;;;;;26.63;10.77;;;;;;;40.71;38.70;101058.34;5020609;28;20452;-83
2023/06/02 06:54:25;;;;;;;26.23;11.13;;;;;;;40.80;38.54;101057.19;5029884;28;20570;-85
2023/06/02 06:56:51;;;;;;;25.33;7.80;;;;;;;40.75;38.66;101059.28;5029667;28;20415;-85
2023/06/02 06:59:16;;;;;;;23.40;9.20;;;;;;;40.83;39.01;101063.94;5030853;28;20449;-84
2023/06/02 07:01:45;;;;;;;15.43;5.30;;;;;;;40.83;38.64;101076.75;5030840;28;20185;-86
2023/06/02 07:04:11;;;;;;;13.43;5.83;;;;;;;40.90;38.76;101083.31;5030808;28;20181;-86
2023/06/02 07:06:37;;;;;;;15.57;9.10;;;;;;;40.98;38.95;101084.41;5030939;28;20438;-85
2023/06/02 07:09:04;;;;;;;14.00;6.57;;;;;;;41.06;38.40;101083.59;5031204;28;20797;-84
2023/06/02 07:11:29;;;;;;;21.83;6.80;;;;;;;40.97;38.73;101097.22;5030749;28;20498;-89
2023/06/02 07:13:55;;;;;;;21.93;7.93;;;;;;;41.04;38.78;101094.00;5030860;28;20455;-86
2023/06/02 07:16:21;;;;;;;16.60;7.57;;;;;;;40.97;38.98;101099.16;5028844;28;20188;-87
2023/06/02 07:18:48;;;;;;;21.20;6.40;;;;;;;41.03;38.81;101092.41;5027452;28;20260;-87
2023/06/02 07:21:14;;;;;;;20.50;6.90;;;;;;;40.92;38.85;101107.47;5035412;28;20630;-88
2023/06/02 07:23:40;;;;;;;11.63;6.10;;;;;;;40.76;38.91;101107.94;5024058;28;20462;-88
2023/06/02 07:26:06;;;;;;;19.73;6.90;;;;;;;40.73;38.75;101103.13;5022642;28;20427;-88
2023/06/02 07:28:32;;;;;;;22.87;7.30;;;;;;;40.79;38.81;101099.13;5013613;28;20295;-87
2023/06/02 07:30:58;;;;;;;13.43;7.87;;;;;;;40.91;38.70;101101.22;5014732;28;20547;-85
2023/06/02 07:33:24;;;;;;;21.00;9.90;;;;;;;40.98;38.89;101112.44;5012951;28;20181;-89
2023/06/02 07:35:49;;;;;;;13.73;9.10;;;;;;;40.85;39.16;101107.94;5014736;28;20205;-91
2023/06/02 07:38:15;;;;;;;19.73;10.50;;;;;;;40.83;39.03;101114.81;5042399;28;20228;-88
2023/06/02 07:40:41;;;;;;;20.23;10.00;;;;;;;40.98;38.68;101128.75;5030500;28;20656;-86
2023/06/02 07:43:07;;;;;;;19.53;8.63;;;;;;;41.05;38.46;101117.38;5030694;28;20231;-90
2023/06/02 07:45:45;;;;;;;19.47;9.93;;;;;;;41.04;38.94;101113.84;5029999;28;20420;-92
2023/06/02 07:48:15;;;;;;;15.10;9.07;;;;;;;41.03;38.99;101125.88;5035383;28;20416;-88
2023/06/02 07:50:41;;;;;;;18.60;9.20;;;;;;;41.06;38.79;101130.66;5034289;28;20538;-86
2023/06/02 07:53:06;;;;;;;20.07;10.40;;;;;;;41.02;38.96;101118.84;5016179;28;20478;-89
2023/06/02 07:55:32;;;;;;;17.93;11.30;;;;;;;41.11;38.35;101115.28;5032539;28;20427;-87
2023/06/02 07:57:58;;;;;;;22.17;14.73;;;;;;;41.12;38.84;101117.69;5034598;28;20263;-92
2023/06/02 08:00:36;;;;;;;19.03;9.27;;;;;;;41.04;38.43;101121.22;5034762;28;20199;-94
2023/06/02 08:03:36;;;;;;;18.77;9.57;;;;;;;41.06;38.77;101122.50;5035426;28;20429;-95
2023/06/02 08:06:03;;;;;;;16.17;9.13;;;;;;;41.13;38.43;101137.53;5042446;28;20427;-95
2023/06/02 08:09:15;;;;;;;18.23;10.50;;;;;;;41.19;38.14;101149.84;5045362;28;20415;-96
2023/06/02 08:15:18;;;;;;;22.30;8.37;;;;;;;40.91;38.37;101154.84;5052202;28;20431;-96
2023/06/02 08:17:46;;;;;;;13.43;5.87;;;;;;;40.90;38.38;101155.94;5042727;28;20467;-95
2023/06/02 08:24:36;;;;;;;16.37;5.53;;;;;;;40.91;38.80;101163.00;5074365;28;20456;-95
2023/06/02 08:27:20;;;;;;;14.80;5.10;;;;;;;40.80;38.71;101168.72;5047119;28;20442;-94
2023/06/02 08:29:49;;;;;;;16.53;6.13;;;;;;;40.84;38.84;101157.22;5056978;28;20535;-93
2023/06/02 08:32:19;;;;;;;14.50;6.20;;;;;;;41.02;38.95;101162.38;5067106;28;20964;-87
2023/06/02 08:34:55;;;;;;;15.50;6.37;;;;;;;40.90;39.33;101159.50;5040387;28;20430;-87
2023/06/02 08:37:21;;;;;;;14.60;5.03;;;;;;;40.90;38.81;101166.81;5045320;28;20788;-86
2023/06/02 08:39:49;;;;;;;13.50;5.10;;;;;;;40.97;39.06;101169.91;5025514;28;20415;-85
2023/06/02 08:42:16;;;;;;;20.73;8.10;;;;;;;41.03;39.21;101171.34;5043903;28;20418;-86
2023/06/02 08:44:44;;;;;;;23.10;8.17;;;;;;;41.07;39.25;101170.38;5041742;28;20430;-89
2023/06/02 08:47:13;;;;;;;22.20;7.23;;;;;;;41.03;38.82;101163.16;5037998;28;20441;-91
2023/06/02 08:49:46;;;;;;;13.67;7.50;;;;;;;41.10;38.97;101168.94;5039232;28;20437;-90
2023/06/02 08:52:23;;;;;;;17.70;7.10;;;;;;;41.21;38.69;101177.56;5046450;28;20426;-92
2023/06/02 08:54:50;;;;;;;13.73;6.57;;;;;;;40.84;39.28;101182.50;5043477;28;20445;-89
2023/06/02 08:57:20;;;;;;;12.50;5.50;;;;;;;40.85;39.02;101194.19;5043261;28;20452;-88
2023/06/02 08:59:46;;;;;;;22.33;5.93;;;;;;;40.86;39.18;101195.78;5026050;28;20450;-89
2023/06/02 09:02:16;;;;;;;15.00;5.70;;;;;;;40.89;38.54;101189.72;5041717;28;20431;-89
2023/06/02 09:04:45;;;;;;;18.30;5.13;;;;;;;40.96;38.40;101184.63;5038173;28;20828;-88
2023/06/02 09:07:15;;;;;;;12.60;5.20;;;;;;;41.12;38.05;101196.59;5039060;28;20430;-88
2023/06/02 09:10:03;;;;;;;17.37;4.93;;;;;;;41.11;38.06;101188.78;5059091;28;20421;-91
2023/06/02 09:12:53;;;;;;;14.50;5.63;;;;;;;41.00;37.61;101183.63;5065152;28;20435;-91
2023/06/02 09:15:19;;;;;;;10.90;5.63;;;;;;;41.17;37.72;101182.84;5047784;28;20457;-87
2023/06/02 09:17:45;;;;;;;14.43;4.80;;;;;;;41.12;37.70;101171.31;5049245;28;20427;-87
2023/06/02 09:20:11;;;;;;;14.60;7.47;;;;;;;40.87;38.51;101181.06;5049880;28;20896;-91
2023/06/02 09:22:57;;;;;;;15.50;5.40;;;;;;;41.12;38.06;101171.31;5055198;28;20425;-86
2023/06/02 09:25:25;;;;;;;12.57;4.93;;;;;;;41.11;37.89;101162.34;5052914;28;20414;-86
2023/06/02 09:27:56;;;;;;;17.30;6.20;;;;;;;41.06;37.81;101162.50;5054116;28;20440;-91
2023/06/02 09:30:55;;;;;;;10.07;4.60;;;;;;;41.23;38.06;101161.72;5051651;28;20503;-84
2023/06/02 09:33:21;;;;;;;15.77;6.50;;;;;;;41.19;37.62;101145.25;5052114;28;20432;-87
2023/06/02 09:35:48;;;;;;;10.83;5.07;;;;;;;41.23;37.21;101156.25;5068030;28;20549;-87
2023/06/02 09:38:16;;;;;;;11.30;5.43;;;;;;;41.15;37.02;101174.22;5069410;28;20418;-86
2023/06/02 09:40:44;;;;;;;13.37;5.80;;;;;;;41.14;37.19;101180.78;5049018;28;20481;-88
2023/06/02 09:43:17;;;;;;;13.80;5.70;;;;;;;41.13;36.76;101190.06;5037229;28;20411;-88
2023/06/02 09:45:48;;;;;;;12.50;5.47;;;;;;;41.10;36.87;101189.91;5056896;28;20472;-88
2023/06/02 09:48:18;;;;;;;17.40;5.77;;;;;;;41.04;37.97;101200.16;5037269;28;20431;-87
2023/06/02 09:50:44;;;;;;;21.30;6.77;;;;;;;41.10;37.65;101203.50;5053154;28;20884;-88
2023/06/02 09:53:13;;;;;;;19.50;5.73;;;;;;;41.11;38.11;101211.34;5057645;28;20521;-88
2023/06/02 09:55:39;;;;;;;21.90;7.10;;;;;;;41.18;38.64;101199.97;5055327;28;20436;-89
2023/06/02 09:58:07;;;;;;;31.03;6.97;;;;;;;41.04;38.59;101206.38;5047337;28;20460;-87
2023/06/02 10:00:37;;;;;;;13.70;5.77;;;;;;;41.07;39.09;101200.31;5055350;28;20453;-87
2023/06/02 10:03:04;;;;;;;17.70;6.80;;;;;;;41.10;38.73;101201.59;5055555;28;20461;-88
2023/06/02 10:05:30;;;;;;;20.37;6.83;;;;;;;41.13;38.47;101195.50;5050194;28;20456;-89
2023/06/02 10:08:17;;;;;;;14.37;4.90;;;;;;;41.18;38.71;101200.78;5050033;28;20438;-90
2023/06/02 10:11:01;;;;;;;15.47;5.30;;;;;;;41.17;38.33;101201.91;5044160;28;20983;-87
2023/06/02 10:13:48;;;;;;;16.50;5.23;;;;;;;40.97;38.28;101202.53;5064071;28;20804;-88
2023/06/02 10:16:54;;;;;;;22.20;7.33;;;;;;;41.05;38.31;101190.84;5051424;28;20842;-87
2023/06/02 10:19:49;;;;;;;21.93;7.20;;;;;;;41.21;38.04;101185.75;5054861;28;20429;-91
2023/06/02 10:22:32;;;;;;;11.63;6.07;;;;;;;41.20;37.93;101195.03;5012251;28;20913;-88
2023/06/02 10:25:20;;;;;;;16.20;6.03;;;;;;;41.24;38.07;101190.53;4994825;28;20460;-90
2023/06/02 10:28:08;;;;;;;14.90;6.03;;;;;;;41.24;37.68;101193.25;4978395;28;20417;-92
2023/06/02 10:30:37;;;;;;;14.50;7.53;;;;;;;41.20;37.75;101184.94;5011405;28;20496;-89
2023/06/02 10:33:07;;;;;;;14.17;5.40;;;;;;;41.24;37.78;101180.44;5005911;28;20437;-91
2023/06/02 10:36:04;;;;;;;18.00;8.20;;;;;;;41.32;37.55;101179.69;4978312;28;20440;-90
2023/06/02 10:38:38;;;;;;;15.93;6.63;;;;;;;41.39;37.66;101175.66;4957972;28;20491;-91
2023/06/02 10:41:06;;;;;;;14.10;5.10;;;;;;;41.41;37.72;101176.94;5005637;28;20973;-91
2023/06/02 10:44:13;;;;;;;17.00;7.07;;;;;;;41.53;37.47;101166.16;5010722;28;20440;-90
2023/06/02 10:46:51;;;;;;;14.50;6.70;;;;;;;41.54;36.90;101164.25;4983013;28;20473;-92
2023/06/02 10:49:55;;;;;;;16.97;4.60;;;;;;;41.46;36.17;101154.97;4983053;28;20429;-87
2023/06/02 10:53:13;;;;;;;14.60;3.70;;;;;;;41.34;36.97;101163.81;5022499;28;20455;-92
2023/06/02 11:09:42;;;;;;;12.90;6.60;;;;;;;41.55;37.01;101142.13;5045990;28;20966;-89
2023/06/02 11:12:17;;;;;;;11.63;5.00;;;;;;;41.64;36.95;101142.13;5048350;28;20442;-90
2023/06/02 11:15:03;;;;;;;21.50;4.93;;;;;;;41.55;37.17;101152.22;5055011;28;20438;-90
2023/06/02 11:17:34;;;;;;;16.37;5.90;;;;;;;41.47;37.21;101148.41;5048292;28;20418;-89
2023/06/02 11:20:08;;;;;;;18.50;6.40;;;;;;;41.47;36.79;101150.31;5051999;28;21147;-87
2023/06/02 11:23:03;;;;;;;14.03;4.63;;;;;;;41.34;37.03;101150.19;5069291;28;20422;-91
2023/06/02 11:25:30;;;;;;;12.13;4.90;;;;;;;41.46;36.88;101148.72;5055747;28;20780;-89
2023/06/02 11:27:56;;;;;;;11.07;4.33;;;;;;;41.43;36.91;101147.44;5047425;28;20414;-89
2023/06/02 11:30:22;;;;;;;14.37;5.30;;;;;;;41.33;36.80;101145.88;5049244;28;20841;-83
2023/06/02 11:33:05;;;;;;;18.00;5.70;;;;;;;41.39;36.95;101138.34;5050779;28;20187;-88
2023/06/02 11:35:32;;;;;;;11.93;5.90;;;;;;;41.40;36.84;101136.41;5045652;28;20953;-84
2023/06/02 11:38:08;;;;;;;14.57;5.30;;;;;;;41.57;36.88;101130.94;5055055;28;20506;-86
2023/06/02 11:40:36;;;;;;;12.23;4.97;;;;;;;41.48;36.86;101135.59;5046129;28;20445;-86
2023/06/02 11:43:03;;;;;;;16.27;6.50;;;;;;;41.30;37.26;101137.50;5042416;28;20480;-87
2023/06/02 11:45:30;;;;;;;11.97;5.63;;;;;;;41.37;36.89;101131.59;5036019;28;20431;-87
2023/06/02 11:48:02;;;;;;;19.83;7.50;;;;;;;41.31;36.67;101128.22;5042552;28;20966;-87
2023/06/02 11:50:44;;;;;;;15.33;6.50;;;;;;;41.32;36.79;101130.66;5058703;28;20469;-92
2023/06/02 11:53:14;;;;;;;12.13;7.13;;;;;;;41.10;37.38;101132.75;5042343;28;20484;-82